Time,TemperatureF,DewpointF,PressureIn,WindDirection,WindDirectionDegrees,WindSpeedMPH,WindSpeedGustMPH,Humidity,HourlyPrecipIn,Conditions,Clouds,dailyrainin,SoftwareType,DateUTC
2013-03-01 00:00:00,31.0,6.5,30.46,North,360,6.0,7.0,35,0.00,CLR,,0.00,WeatherDisplay:10.37,2013-03-01 07:00:00,
2013-03-01 00:10:00,33.0,6.3,30.46,NNW,339,6.0,7.0,32,0.00,CLR,,0.00,WeatherDisplay:10.37,2013-03-01 07:10:00,
2013-03-01 00:20:00,31.3,6.8,30.46,NNW,337,2.0,6.0,35,0.00,CLR,,0.00,WeatherDisplay:10.37,2013-03-01 07:20:00,
2013-03-01 00:30:00,30.0,6.8,30.46,NNW,337,2.0,4.0,37,0.00,CLR,,0.00,WeatherDisplay:10.37,2013-03-01 07:30:00,
2013-03-01 00:40:00,30.0,8.0,30.46,NNW,337,2.0,5.0,39,0.00,CLR,,0.00,WeatherDisplay:10.37,2013-03-01 07:40:00,
2013-03-01 00:50:00,26.3,7.8,30.48,NNW,337,1.0,2.0,45,0.00,CLR,,0.00,WeatherDisplay:10.37,2013-03-01 07:50:00,
2013-03-01 01:00:00,25.0,9.0,30.50,NNW,337,1.0,3.0,50,0.00,CLR,,0.00,WeatherDisplay:10.37,2013-03-01 08:00:00,
2013-03-01 01:10:00,25.0,11.1,30.50,North,356,6.0,7.0,55,0.00,CLR,,0.00,WeatherDisplay:10.37,2013-03-01 08:10:00,
2013-03-01 01:20:00,25.0,9.8,30.50,North,360,6.0,6.0,52,0.00,CLR,,0.00,WeatherDisplay:10.37,2013-03-01 08:20:00,
2013-03-01 01:30:00,25.0,10.3,30.50,North,360,7.0,8.0,53,0.00,CLR,,0.00,WeatherDisplay:10.37,2013-03-01 08:30:00,
2013-03-01 01:40:00,26.0,10.3,30.50,North,360,8.0,10.0,51,0.00,CLR,,0.00,WeatherDisplay:10.37,2013-03-01 08:40:00,
2013-03-01 01:50:00,26.0,10.3,30.49,NNE,14,8.0,10.0,51,0.00,CLR,,0.00,WeatherDisplay:10.37,2013-03-01 08:50:00,
2013-03-01 02:00:00,27.0,9.9,30.49,NNE,22,8.0,10.0,48,0.00,CLR,,0.00,WeatherDisplay:10.37,2013-03-01 09:00:00,
2013-03-01 02:10:00,26.2,10.1,30.49,North,1,7.0,9.0,50,0.00,CLR,,0.00,WeatherDisplay:10.37,2013-03-01 09:10:00,
2013-03-01 02:20:00,26.0,11.6,30.49,North,360,7.0,9.0,54,0.00,CLR,,0.00,WeatherDisplay:10.37,2013-03-01 09:20:00,
2013-03-01 02:30:00,25.0,10.7,30.49,North,360,6.0,9.0,54,0.00,CLR,,0.00,WeatherDisplay:10.37,2013-03-01 09:30:00,
2013-03-01 02:40:00,24.0,11.0,30.49,North,360,2.0,6.0,57,0.00,CLR,,0.00,WeatherDisplay:10.37,2013-03-01 09:40:00,
2013-03-01 02:50:00,24.0,12.5,30.50,NNE,20,7.0,7.0,61,0.00,CLR,,0.00,WeatherDisplay:10.37,2013-03-01 09:50:00,
2013-03-01 03:00:00,24.0,11.7,30.50,NNE,22,7.0,9.0,59,0.00,CLR,,0.00,WeatherDisplay:10.37,2013-03-01 10:00:00,
2013-03-01 03:10:00,25.0,11.5,30.48,NNE,22,7.0,9.0,56,0.00,CLR,,0.00,WeatherDisplay:10.37,2013-03-01 10:10:00,
2013-03-01 03:20:00,24.0,11.7,30.48,NNE,22,7.0,9.0,59,0.00,CLR,,0.00,WeatherDisplay:10.37,2013-03-01 10:20:00,
2013-03-01 03:30:00,24.0,11.7,30.48,NNE,22,7.0,9.0,59,0.00,CLR,,0.00,WeatherDisplay:10.37,2013-03-01 10:30:00,
2013-03-01 03:40:00,25.0,11.5,30.47,NNE,22,8.0,10.0,56,0.00,CLR,,0.00,WeatherDisplay:10.37,2013-03-01 10:40:00,
2013-03-01 03:50:00,25.0,10.7,30.47,NNE,22,9.0,12.0,54,0.00,CLR,,0.00,WeatherDisplay:10.37,2013-03-01 10:50:00,
2013-03-01 04:00:00,25.3,10.5,30.47,NNE,22,8.0,13.0,53,0.00,CLR,,0.00,WeatherDisplay:10.37,2013-03-01 11:00:00,
2013-03-01 04:10:00,26.0,10.8,30.47,North,0,9.0,12.0,52,0.00,CLR,,0.00,WeatherDisplay:10.37,2013-03-01 11:10:00,
2013-03-01 04:20:00,26.0,10.8,30.47,North,360,7.0,10.0,52,0.00,CLR,,0.00,WeatherDisplay:10.37,2013-03-01 11:20:00,
2013-03-01 04:30:00,25.0,12.7,30.47,NNE,14,7.0,9.0,59,0.00,CLR,,0.00,WeatherDisplay:10.37,2013-03-01 11:30:00,
2013-03-01 04:40:00,25.0,11.9,30.48,NNE,22,7.0,10.0,57,0.00,CLR,,0.00,WeatherDisplay:10.37,2013-03-01 11:40:00,
2013-03-01 04:50:00,25.0,11.1,30.47,North,360,7.0,9.0,55,0.00,CLR,,0.00,WeatherDisplay:10.37,2013-03-01 11:50:00,
2013-03-01 05:00:00,25.0,10.3,30.46,NNW,346,7.0,9.0,53,0.00,CLR,,0.00,WeatherDisplay:10.37,2013-03-01 12:00:00,
2013-03-01 05:10:00,28.0,10.3,30.46,NW,319,7.0,10.0,47,0.00,CLR,,0.00,WeatherDisplay:10.37,2013-03-01 12:10:00,
2013-03-01 05:20:00,29.7,10.4,30.44,NW,315,7.0,9.0,44,0.00,CLR,,0.00,WeatherDisplay:10.37,2013-03-01 12:20:00,
2013-03-01 05:30:00,31.0,10.6,30.44,NNW,332,7.0,10.0,42,0.00,CLR,,0.00,WeatherDisplay:10.37,2013-03-01 12:30:00,
2013-03-01 05:40:00,31.0,10.6,30.44,NNW,337,6.0,10.0,42,0.00,CLR,,0.00,WeatherDisplay:10.37,2013-03-01 12:40:00,
2013-03-01 05:50:00,30.0,9.6,30.46,NNW,337,7.0,9.0,42,0.00,CLR,,0.00,WeatherDisplay:10.37,2013-03-01 12:50:00,
2013-03-01 06:00:00,30.0,10.2,30.46,North,350,7.0,9.0,43,0.00,CLR,,0.00,WeatherDisplay:10.37,2013-03-01 13:00:00,
2013-03-01 06:10:00,29.0,10.3,30.47,North,352,5.0,9.0,45,0.00,CLR,,0.00,WeatherDisplay:10.37,2013-03-01 13:10:00,
2013-03-01 06:20:00,29.0,10.3,30.48,NW,321,6.0,8.0,45,0.00,CLR,,0.00,WeatherDisplay:10.37,2013-03-01 13:20:00,
2013-03-01 06:30:00,34.0,9.2,30.47,NW,315,8.0,10.0,35,0.00,CLR,,0.00,WeatherDisplay:10.37,2013-03-01 13:30:00,
2013-03-01 06:40:00,34.0,8.5,30.44,NW,323,7.0,10.0,34,0.00,CLR,,0.00,WeatherDisplay:10.37,2013-03-01 13:40:00,
2013-03-01 06:50:00,34.7,9.2,30.46,NW,320,9.0,12.0,34,0.00,CLR,,0.00,WeatherDisplay:10.37,2013-03-01 13:50:00,
2013-03-01 07:00:00,36.0,8.2,30.45,WNW,298,8.0,12.0,31,0.00,CLR,,0.00,WeatherDisplay:10.37,2013-03-01 14:00:00,
2013-03-01 07:10:00,36.0,10.3,30.44,NNW,334,5.0,13.0,34,0.00,CLR,,0.00,WeatherDisplay:10.37,2013-03-01 14:10:00,
2013-03-01 07:20:00,35.0,10.7,30.45,NNE,29,7.0,9.0,36,0.00,CLR,,0.00,WeatherDisplay:10.37,2013-03-01 14:20:00,
2013-03-01 07:30:00,35.3,11.6,30.46,North,9,7.0,9.0,37,0.00,CLR,,0.00,WeatherDisplay:10.37,2013-03-01 14:30:00,
2013-03-01 07:40:00,34.0,12.2,30.46,NE,38,7.0,9.0,40,0.00,CLR,,0.00,WeatherDisplay:10.37,2013-03-01 14:40:00,
2013-03-01 07:50:00,34.3,11.8,30.47,ENE,60,3.0,7.0,39,0.00,CLR,,0.00,WeatherDisplay:10.37,2013-03-01 14:50:00,
2013-03-01 08:00:00,34.0,11.6,30.47,NE,40,7.0,8.0,39,0.00,CLR,,0.00,WeatherDisplay:10.37,2013-03-01 15:00:00,
2013-03-01 08:10:00,37.0,12.5,30.46,NE,41,7.0,9.0,36,0.00,CLR,,0.00,WeatherDisplay:10.37,2013-03-01 15:10:00,
2013-03-01 08:20:00,39.7,12.2,30.45,NNE,22,7.0,9.0,32,0.00,CLR,,0.00,WeatherDisplay:10.37,2013-03-01 15:20:00,
2013-03-01 08:30:00,41.0,12.6,30.44,NNE,12,7.0,8.0,31,0.00,CLR,,0.00,WeatherDisplay:10.37,2013-03-01 15:30:00,
2013-03-01 08:40:00,44.0,13.7,30.42,North,358,7.0,10.0,29,0.00,CLR,,0.00,WeatherDisplay:10.37,2013-03-01 15:40:00,
2013-03-01 08:50:00,46.0,13.8,30.41,North,9,9.0,12.0,27,0.00,CLR,,0.00,WeatherDisplay:10.37,2013-03-01 15:50:00,
2013-03-01 09:00:00,47.0,13.8,30.40,NNE,19,10.0,12.0,26,0.00,CLR,,0.00,WeatherDisplay:10.37,2013-03-01 16:00:00,
2013-03-01 09:10:00,49.0,14.7,30.39,North,7,10.0,13.0,25,0.00,CLR,,0.00,WeatherDisplay:10.37,2013-03-01 16:10:00,
2013-03-01 09:20:00,51.0,13.4,30.38,North,352,9.0,13.0,22,0.00,CLR,,0.00,WeatherDisplay:10.37,2013-03-01 16:20:00,
2013-03-01 09:30:00,52.0,13.2,30.38,NNW,340,10.0,13.0,21,0.00,CLR,,0.00,WeatherDisplay:10.37,2013-03-01 16:30:00,
2013-03-01 09:40:00,54.0,12.6,30.37,North,6,13.0,15.0,19,0.00,CLR,,0.00,WeatherDisplay:10.37,2013-03-01 16:40:00,
2013-03-01 09:50:00,54.0,12.6,30.37,North,7,9.0,15.0,19,0.00,CLR,,0.00,WeatherDisplay:10.37,2013-03-01 16:50:00,
2013-03-01 10:00:00,56.0,13.0,30.36,North,352,10.0,14.0,18,0.00,CLR,,0.00,WeatherDisplay:10.37,2013-03-01 17:00:00,
2013-03-01 10:10:00,56.3,14.5,30.36,North,9,10.0,13.0,19,0.00,CLR,,0.00,WeatherDisplay:10.37,2013-03-01 17:10:00,
2013-03-01 10:20:00,56.7,14.9,30.35,NNE,13,10.0,15.0,19,0.00,CLR,,0.00,WeatherDisplay:10.37,2013-03-01 17:20:00,
2013-03-01 10:30:00,58.0,13.4,30.34,North,4,10.0,15.0,17,0.00,CLR,,0.00,WeatherDisplay:10.37,2013-03-01 17:30:00,
2013-03-01 10:40:00,59.0,14.2,30.34,North,360,10.0,15.0,17,0.00,CLR,,0.00,WeatherDisplay:10.37,2013-03-01 17:40:00,
2013-03-01 10:50:00,60.0,15.0,30.34,NNW,347,10.0,16.0,17,0.00,CLR,,0.00,WeatherDisplay:10.37,2013-03-01 17:50:00,
2013-03-01 11:00:00,61.0,15.8,30.33,North,352,10.0,16.0,17,0.00,CLR,,0.00,WeatherDisplay:10.37,2013-03-01 18:00:00,
2013-03-01 11:10:00,62.0,15.2,30.32,NNW,341,10.0,16.0,16,0.00,CLR,,0.00,WeatherDisplay:10.37,2013-03-01 18:10:00,
2013-03-01 11:20:00,62.0,15.2,30.32,NNW,340,13.0,18.0,16,0.00,CLR,,0.00,WeatherDisplay:10.37,2013-03-01 18:20:00,
2013-03-01 11:30:00,62.0,15.2,30.32,NW,319,12.0,20.0,16,0.00,CLR,,0.00,WeatherDisplay:10.37,2013-03-01 18:30:00,
2013-03-01 11:40:00,64.0,16.8,30.32,NNW,346,10.0,18.0,16,0.00,CLR,,0.00,WeatherDisplay:10.37,2013-03-01 18:40:00,
2013-03-01 11:50:00,64.0,16.8,30.31,North,354,13.0,23.0,16,0.00,CLR,,0.00,WeatherDisplay:10.37,2013-03-01 18:50:00,
2013-03-01 12:00:00,62.7,14.3,30.30,NNW,330,12.0,20.0,15,0.00,CLR,,0.00,WeatherDisplay:10.37,2013-03-01 19:00:00,
2013-03-01 12:10:00,64.0,16.8,30.30,North,356,13.0,21.0,16,0.00,CLR,,0.00,WeatherDisplay:10.37,2013-03-01 19:10:00,
2013-03-01 12:20:00,64.0,16.8,30.30,North,354,12.0,20.0,16,0.00,CLR,,0.00,WeatherDisplay:10.37,2013-03-01 19:20:00,
2013-03-01 12:30:00,64.0,16.8,30.30,NNW,329,13.0,20.0,16,0.00,CLR,,0.00,WeatherDisplay:10.37,2013-03-01 19:30:00,
2013-03-01 12:40:00,65.0,16.2,30.29,NNW,337,14.0,20.0,15,0.00,CLR,,0.00,WeatherDisplay:10.37,2013-03-01 19:40:00,
2013-03-01 12:50:00,66.0,15.4,30.28,North,349,14.0,17.0,14,0.00,CLR,,0.00,WeatherDisplay:10.37,2013-03-01 19:50:00,
2013-03-01 13:00:00,66.0,15.4,30.27,North,357,13.0,20.0,14,0.00,CLR,,0.00,WeatherDisplay:10.37,2013-03-01 20:00:00,
2013-03-01 13:10:00,66.0,15.4,30.27,North,352,14.0,20.0,14,0.00,CLR,,0.00,WeatherDisplay:10.37,2013-03-01 20:10:00,
2013-03-01 13:20:00,67.0,16.2,30.25,NNW,344,12.0,20.0,14,0.00,CLR,,0.00,WeatherDisplay:10.37,2013-03-01 20:20:00,
2013-03-01 13:30:00,67.0,16.2,30.25,NNW,337,9.0,20.0,14,0.00,CLR,,0.00,WeatherDisplay:10.37,2013-03-01 20:30:00,
2013-03-01 13:40:00,67.0,16.2,30.25,NNW,344,12.0,20.0,14,0.00,CLR,,0.00,WeatherDisplay:10.37,2013-03-01 20:40:00,
2013-03-01 13:50:00,69.0,17.8,30.24,North,9,14.0,20.0,14,0.00,CLR,,0.00,WeatherDisplay:10.37,2013-03-01 20:50:00,
2013-03-01 14:00:00,68.0,18.6,30.23,NNE,14,14.0,20.0,15,0.00,CLR,,0.00,WeatherDisplay:10.37,2013-03-01 21:00:00,
2013-03-01 14:10:00,68.0,17.0,30.23,North,6,16.0,21.0,14,0.00,CLR,,0.00,WeatherDisplay:10.37,2013-03-01 21:10:00,
2013-03-01 14:20:00,69.0,17.8,30.23,North,357,15.0,20.0,14,0.00,CLR,,0.00,WeatherDisplay:10.37,2013-03-01 21:20:00,
2013-03-01 14:30:00,70.0,18.6,30.21,NNW,347,17.0,22.0,14,0.00,CLR,,0.00,WeatherDisplay:10.37,2013-03-01 21:30:00,
2013-03-01 14:40:00,69.0,17.8,30.21,North,358,16.0,26.0,14,0.00,CLR,,0.00,WeatherDisplay:10.37,2013-03-01 21:40:00,
2013-03-01 14:50:00,69.0,17.8,30.21,NNW,348,16.0,22.0,14,0.00,CLR,,0.00,WeatherDisplay:10.37,2013-03-01 21:50:00,
2013-03-01 15:00:00,69.7,18.3,30.21,NNW,339,12.0,20.0,14,0.00,CLR,,0.00,WeatherDisplay:10.37,2013-03-01 22:00:00,
2013-03-01 15:10:00,69.0,17.8,30.20,NNW,333,13.0,21.0,14,0.00,CLR,,0.00,WeatherDisplay:10.37,2013-03-01 22:10:00,
2013-03-01 15:20:00,69.0,17.8,30.20,NNW,342,15.0,23.0,14,0.00,CLR,,0.00,WeatherDisplay:10.37,2013-03-01 22:20:00,
2013-03-01 15:30:00,69.0,17.8,30.20,NNW,335,16.0,21.0,14,0.00,CLR,,0.00,WeatherDisplay:10.37,2013-03-01 22:30:00,
2013-03-01 15:40:00,69.3,18.0,30.20,NNW,340,15.0,21.0,14,0.00,CLR,,0.00,WeatherDisplay:10.37,2013-03-01 22:40:00,
2013-03-01 15:50:00,68.3,17.2,30.21,NW,314,13.0,20.0,14,0.00,CLR,,0.00,WeatherDisplay:10.37,2013-03-01 22:50:00,
2013-03-01 16:00:00,69.0,17.8,30.21,NNW,330,13.0,20.0,14,0.00,CLR,,0.00,WeatherDisplay:10.37,2013-03-01 23:00:00,
2013-03-01 16:10:00,69.0,17.8,30.20,NNW,338,12.0,20.0,14,0.00,CLR,,0.00,WeatherDisplay:10.37,2013-03-01 23:10:00,
2013-03-01 16:20:00,69.0,17.8,30.21,North,354,14.0,20.0,14,0.00,CLR,,0.00,WeatherDisplay:10.37,2013-03-01 23:20:00,
2013-03-01 16:30:00,69.0,17.8,30.21,North,350,13.0,20.0,14,0.00,CLR,,0.00,WeatherDisplay:10.37,2013-03-01 23:30:00,
2013-03-01 16:40:00,69.0,17.8,30.20,North,353,14.0,20.0,14,0.00,CLR,,0.00,WeatherDisplay:10.37,2013-03-01 23:40:00,
2013-03-01 16:50:00,68.0,18.6,30.20,North,357,13.0,21.0,15,0.00,CLR,,0.00,WeatherDisplay:10.37,2013-03-01 23:50:00,
2013-03-01 17:00:00,68.0,18.6,30.21,North,1,15.0,22.0,15,0.00,CLR,,0.00,WeatherDisplay:10.37,2013-03-02 00:00:00,
2013-03-01 17:10:00,67.0,19.3,30.21,North,360,12.0,20.0,16,0.00,CLR,,0.00,WeatherDisplay:10.37,2013-03-02 00:10:00,
2013-03-01 17:20:00,67.0,19.3,30.22,North,357,13.0,20.0,16,0.00,CLR,,0.00,WeatherDisplay:10.37,2013-03-02 00:20:00,
2013-03-01 17:30:00,67.0,19.3,30.23,North,354,10.0,16.0,16,0.00,CLR,,0.00,WeatherDisplay:10.37,2013-03-02 00:30:00,
2013-03-01 17:40:00,66.0,18.5,30.23,North,353,10.0,14.0,16,0.00,CLR,,0.00,WeatherDisplay:10.37,2013-03-02 00:40:00,
2013-03-01 17:50:00,65.0,19.1,30.23,North,358,9.0,13.0,17,0.00,CLR,,0.00,WeatherDisplay:10.37,2013-03-02 00:50:00,
2013-03-01 18:00:00,64.0,19.6,30.24,North,354,10.0,13.0,18,0.00,CLR,,0.00,WeatherDisplay:10.37,2013-03-02 01:00:00,
2013-03-01 18:10:00,62.0,16.6,30.25,North,359,8.0,12.0,17,0.00,CLR,,0.00,WeatherDisplay:10.37,2013-03-02 01:10:00,
2013-03-01 18:20:00,60.0,17.6,30.27,North,4,5.0,10.0,19,0.00,CLR,,0.00,WeatherDisplay:10.37,2013-03-02 01:20:00,
2013-03-01 18:30:00,56.3,18.9,30.28,ENE,63,6.0,8.0,23,0.00,CLR,,0.00,WeatherDisplay:10.37,2013-03-02 01:30:00,
2013-03-01 18:40:00,57.0,17.4,30.29,East,89,5.0,12.0,21,0.00,CLR,,0.00,WeatherDisplay:10.37,2013-03-02 01:40:00,
2013-03-01 18:50:00,56.0,16.6,30.30,ENE,63,1.0,6.0,21,0.00,CLR,,0.00,WeatherDisplay:10.37,2013-03-02 01:50:00,
2013-03-01 19:00:00,55.0,17.8,30.31,NE,45,5.0,6.0,23,0.00,CLR,,0.00,WeatherDisplay:10.37,2013-03-02 02:00:00,
2013-03-01 19:10:00,54.0,18.0,30.32,NE,44,6.0,9.0,24,0.00,CLR,,0.00,WeatherDisplay:10.37,2013-03-02 02:10:00,
2013-03-01 19:20:00,52.3,17.5,30.32,NE,45,5.0,6.0,25,0.00,CLR,,0.00,WeatherDisplay:10.37,2013-03-02 02:20:00,
2013-03-01 19:30:00,51.3,16.6,30.34,NNE,22,2.0,6.0,25,0.00,CLR,,0.00,WeatherDisplay:10.37,2013-03-02 02:30:00,
2013-03-01 19:40:00,50.0,17.3,30.34,NNE,19,1.0,4.0,27,0.00,CLR,,0.00,WeatherDisplay:10.37,2013-03-02 02:40:00,
2013-03-01 19:50:00,48.0,17.2,30.36,North,360,1.0,6.0,29,0.00,CLR,,0.00,WeatherDisplay:10.37,2013-03-02 02:50:00,
2013-03-01 20:00:00,48.0,16.4,30.36,North,360,6.0,8.0,28,0.00,CLR,,0.00,WeatherDisplay:10.37,2013-03-02 03:00:00,
2013-03-01 20:10:00,47.0,17.1,30.36,NNW,332,6.0,7.0,30,0.00,CLR,,0.00,WeatherDisplay:10.37,2013-03-02 03:10:00,
2013-03-01 20:20:00,47.0,17.1,30.36,NNW,329,3.0,7.0,30,0.00,CLR,,0.00,WeatherDisplay:10.37,2013-03-02 03:20:00,
2013-03-01 20:30:00,46.0,17.7,30.36,NNW,337,5.0,6.0,32,0.00,CLR,,0.00,WeatherDisplay:10.37,2013-03-02 03:30:00,
2013-03-01 20:40:00,44.0,18.1,30.37,NW,326,6.0,6.0,35,0.00,CLR,,0.00,WeatherDisplay:10.37,2013-03-02 03:40:00,
2013-03-01 20:50:00,44.0,16.7,30.38,NW,315,1.0,6.0,33,0.00,CLR,,0.00,WeatherDisplay:10.37,2013-03-02 03:50:00,
2013-03-01 21:00:00,43.0,16.5,30.38,NW,315,0.0,1.0,34,0.00,CLR,,0.00,WeatherDisplay:10.37,2013-03-02 04:00:00,
2013-03-01 21:10:00,42.0,16.3,30.39,NW,315,0.0,1.0,35,0.00,CLR,,0.00,WeatherDisplay:10.37,2013-03-02 04:10:00,
2013-03-01 21:20:00,41.0,17.3,30.39,NW,315,2.0,3.0,38,0.00,CLR,,0.00,WeatherDisplay:10.37,2013-03-02 04:20:00,
2013-03-01 21:30:00,39.3,17.0,30.40,NW,315,0.0,2.0,40,0.00,CLR,,0.00,WeatherDisplay:10.37,2013-03-02 04:30:00,
2013-03-01 21:40:00,38.0,18.0,30.41,NW,315,0.0,0.0,44,0.00,CLR,,0.00,WeatherDisplay:10.37,2013-03-02 04:40:00,
2013-03-01 21:50:00,40.0,18.2,30.42,NNE,22,7.0,8.0,41,0.00,CLR,,0.00,WeatherDisplay:10.37,2013-03-02 04:50:00,
2013-03-01 22:00:00,40.0,19.8,30.41,NNE,22,5.0,8.0,44,0.00,CLR,,0.00,WeatherDisplay:10.37,2013-03-02 05:00:00,
2013-03-01 22:10:00,38.0,19.0,30.42,NNE,22,7.0,9.0,46,0.00,CLR,,0.00,WeatherDisplay:10.37,2013-03-02 05:10:00,
2013-03-01 22:20:00,38.0,19.0,30.42,NNE,22,3.0,8.0,46,0.00,CLR,,0.00,WeatherDisplay:10.37,2013-03-02 05:20:00,
2013-03-01 22:30:00,37.0,18.6,30.43,NNE,22,2.0,5.0,47,0.00,CLR,,0.00,WeatherDisplay:10.37,2013-03-02 05:30:00,
2013-03-01 22:40:00,36.0,17.2,30.43,NNE,22,0.0,5.0,46,0.00,CLR,,0.00,WeatherDisplay:10.37,2013-03-02 05:40:00,
2013-03-01 22:50:00,36.0,18.7,30.44,NNE,22,1.0,2.0,49,0.00,CLR,,0.00,WeatherDisplay:10.37,2013-03-02 05:50:00,
2013-03-01 23:00:00,36.0,18.7,30.44,NNE,22,0.0,7.0,49,0.00,CLR,,0.00,WeatherDisplay:10.37,2013-03-02 06:00:00,
2013-03-01 23:10:00,36.0,18.7,30.44,NNW,337,2.0,4.0,49,0.00,CLR,,0.00,WeatherDisplay:10.37,2013-03-02 06:10:00,
2013-03-01 23:20:00,37.0,18.1,30.43,NNW,337,0.0,5.0,46,0.00,CLR,,0.00,WeatherDisplay:10.37,2013-03-02 06:20:00,
2013-03-01 23:30:00,35.0,16.8,30.44,NNW,337,0.0,3.0,47,0.00,CLR,,0.00,WeatherDisplay:10.37,2013-03-02 06:30:00,
2013-03-01 23:40:00,34.0,18.2,30.44,NNW,337,0.0,1.0,52,0.00,CLR,,0.00,WeatherDisplay:10.37,2013-03-02 06:40:00,
2013-03-01 23:50:00,33.0,17.7,30.46,NNW,337,5.0,5.0,53,0.00,CLR,,0.00,WeatherDisplay:10.37,2013-03-02 06:50:00,